createdAt,value
2023-06-11T00:01:28.499Z,83.60
2023-06-11T00:03:55.839Z,83.80
2023-06-11T00:07:38.040Z,84.00
2023-06-11T00:10:08.503Z,84.30
2023-06-11T00:12:35.347Z,84.30
2023-06-11T00:15:03.522Z,85.00
2023-06-11T00:17:33.758Z,84.40
2023-06-11T00:20:02.729Z,84.70
2023-06-11T00:22:32.611Z,85.00
2023-06-11T00:24:59.418Z,84.80
2023-06-11T00:27:26.250Z,85.00
2023-06-11T00:29:54.964Z,85.30
2023-06-11T00:32:21.875Z,84.50
2023-06-11T00:34:48.815Z,85.10
2023-06-11T00:37:15.719Z,85.30
2023-06-11T00:39:42.534Z,85.40
2023-06-11T00:42:11.277Z,85.70
2023-06-11T00:44:38.160Z,85.50
2023-06-11T00:47:05.370Z,85.60
2023-06-11T00:49:33.174Z,85.60
2023-06-11T00:52:00.217Z,86.10
2023-06-11T00:54:27.025Z,86.40
2023-06-11T00:56:54.296Z,86.70
2023-06-11T00:59:21.413Z,86.50
2023-06-11T01:02:22.450Z,86.50
2023-06-11T01:04:54.416Z,87.10
2023-06-11T01:07:23.827Z,86.70
2023-06-11T01:09:51.763Z,86.90
2023-06-11T01:12:18.551Z,87.10
2023-06-11T01:14:45.350Z,87.10
2023-06-11T01:17:17.020Z,87.30
2023-06-11T01:19:55.777Z,87.50
2023-06-11T01:22:34.879Z,87.20
2023-06-11T01:25:18.480Z,87.60
2023-06-11T01:27:51.234Z,88.20
2023-06-11T01:30:21.967Z,88.20
2023-06-11T01:32:57.441Z,88.30
2023-06-11T01:35:31.501Z,88.60
2023-06-11T01:37:59.160Z,88.20
2023-06-11T01:40:34.854Z,88.20
2023-06-11T01:43:03.400Z,88.40
2023-06-11T01:45:38.231Z,88.30
2023-06-11T01:48:05.604Z,88.30
2023-06-11T01:50:34.513Z,89.60
2023-06-11T01:53:01.759Z,88.40
2023-06-11T01:55:29.343Z,88.70
2023-06-11T01:57:56.621Z,88.90
2023-06-11T02:00:24.108Z,89.00
2023-06-11T02:02:51.393Z,88.80
2023-06-11T02:05:24.943Z,88.70
2023-06-11T02:07:52.613Z,89.10
2023-06-11T02:10:19.455Z,89.60
2023-06-11T02:12:46.737Z,89.40
2023-06-11T02:15:14.354Z,89.50
2023-06-11T02:17:41.947Z,89.60
2023-06-11T02:20:09.618Z,89.50
2023-06-11T02:22:36.615Z,89.50
2023-06-11T02:25:03.570Z,89.50
2023-06-11T02:27:31.301Z,89.80
2023-06-11T02:30:00.864Z,89.80
2023-06-11T02:32:27.968Z,90.10
2023-06-11T02:34:56.288Z,90.20
2023-06-11T02:37:23.069Z,90.10
2023-06-11T02:39:50.052Z,90.30
2023-06-11T02:42:16.859Z,90.10
2023-06-11T02:44:43.598Z,90.00
2023-06-11T02:47:10.534Z,90.40
2023-06-11T02:49:37.298Z,90.60
2023-06-11T02:52:04.389Z,90.50
2023-06-11T02:54:31.132Z,90.60
2023-06-11T02:56:58.026Z,90.70
2023-06-11T02:59:24.809Z,90.70
2023-06-11T03:01:51.743Z,90.70
2023-06-11T03:04:19.102Z,90.80
2023-06-11T03:06:45.985Z,90.70
2023-06-11T03:09:13.196Z,90.80
2023-06-11T03:11:40.221Z,90.90
2023-06-11T03:14:07.036Z,90.90
2023-06-11T03:16:34.502Z,90.70
2023-06-11T03:19:01.496Z,90.90
2023-06-11T03:21:28.389Z,90.90
2023-06-11T03:23:55.804Z,91.20
2023-06-11T03:26:22.709Z,91.20
2023-06-11T03:28:50.195Z,91.20
2023-06-11T03:31:19.479Z,91.40
2023-06-11T03:33:48.141Z,91.60
2023-06-11T03:36:16.137Z,92.00
2023-06-11T03:38:42.978Z,92.20
2023-06-11T03:41:11.983Z,92.30
2023-06-11T03:43:39.612Z,92.30
2023-06-11T03:46:06.916Z,91.90
2023-06-11T03:48:34.222Z,91.60
2023-06-11T03:51:01.358Z,91.20
2023-06-11T03:53:28.216Z,91.10
2023-06-11T03:55:55.098Z,91.00
2023-06-11T03:58:22.492Z,90.90
2023-06-11T04:00:49.542Z,90.80
2023-06-11T04:03:16.543Z,90.90
2023-06-11T04:05:43.531Z,90.70
2023-06-11T04:08:10.922Z,90.40
2023-06-11T04:10:38.644Z,90.30
2023-06-11T04:13:05.576Z,90.40
2023-06-11T04:15:33.356Z,90.40
2023-06-11T04:18:04.902Z,90.50
2023-06-11T04:20:32.405Z,90.50
2023-06-11T04:22:59.916Z,90.30
2023-06-11T04:25:26.801Z,90.40
2023-06-11T04:27:54.815Z,90.30
2023-06-11T04:30:22.512Z,90.20
2023-06-11T04:32:56.349Z,89.80
2023-06-11T04:35:26.107Z,90.00
2023-06-11T04:37:54.349Z,89.60
2023-06-11T04:40:26.551Z,89.50
2023-06-11T04:42:54.964Z,88.90
2023-06-11T04:45:23.183Z,89.10
2023-06-11T04:47:51.373Z,88.60
2023-06-11T04:50:21.807Z,88.30
2023-06-11T04:52:53.169Z,88.10
2023-06-11T04:55:26.357Z,87.30
2023-06-11T04:57:55.872Z,87.10
2023-06-11T05:00:23.780Z,86.50
2023-06-11T05:02:51.464Z,86.10
2023-06-11T05:05:18.625Z,85.20
2023-06-11T05:07:45.523Z,85.10
2023-06-11T05:10:12.612Z,84.70
2023-06-11T05:12:39.558Z,84.20
2023-06-11T05:15:07.434Z,83.90
2023-06-11T05:17:35.420Z,83.50
2023-06-11T05:20:02.801Z,83.00
2023-06-11T05:22:30.952Z,82.30
2023-06-11T05:24:57.823Z,81.10
2023-06-11T05:27:29.987Z,80.90
2023-06-11T05:29:58.171Z,80.70
2023-06-11T05:32:25.311Z,79.90
2023-06-11T05:34:52.328Z,78.80
2023-06-11T05:37:22.343Z,77.70
2023-06-11T05:39:49.195Z,77.10
2023-06-11T05:42:17.800Z,75.70
2023-06-11T05:44:45.152Z,74.60
2023-06-11T05:47:13.017Z,73.40
2023-06-11T05:49:39.927Z,70.50
2023-06-11T05:52:07.008Z,68.00
2023-06-11T05:54:33.979Z,65.70
2023-06-11T05:57:01.356Z,64.00
2023-06-11T05:59:29.037Z,62.30
2023-06-11T06:01:56.258Z,60.80
2023-06-11T06:04:23.533Z,60.50
2023-06-11T06:06:50.432Z,58.40
2023-06-11T06:09:17.665Z,56.30
2023-06-11T06:11:44.989Z,54.40
2023-06-11T06:14:11.934Z,55.00
2023-06-11T06:16:39.810Z,52.70
2023-06-11T06:19:10.467Z,51.40
2023-06-11T06:21:37.286Z,50.90
2023-06-11T06:24:04.673Z,49.60
2023-06-11T06:26:31.757Z,48.60
2023-06-11T06:28:59.329Z,49.30
2023-06-11T06:31:26.601Z,48.50
2023-06-11T06:33:54.068Z,47.30
2023-06-11T06:36:23.763Z,47.50
2023-06-11T06:38:52.198Z,46.30
2023-06-11T06:41:20.221Z,46.20
2023-06-11T06:43:47.240Z,45.80
2023-06-11T06:46:17.956Z,46.70
2023-06-11T06:48:45.120Z,44.80
2023-06-11T06:51:12.132Z,45.20
2023-06-11T06:53:42.322Z,45.40
2023-06-11T06:56:10.792Z,44.90
2023-06-11T06:58:38.376Z,43.20
2023-06-11T07:01:05.580Z,43.20
2023-06-11T07:03:34.796Z,42.90
2023-06-11T07:06:02.164Z,43.00
2023-06-11T07:08:29.258Z,42.10
2023-06-11T07:10:56.906Z,41.00
2023-06-11T07:13:39.734Z,40.90
2023-06-11T07:16:07.732Z,41.30
2023-06-11T07:18:36.358Z,40.30
2023-06-11T07:21:03.321Z,39.00
2023-06-11T07:23:31.329Z,38.40
2023-06-11T07:25:58.558Z,38.80
2023-06-11T07:28:29.257Z,38.40
2023-06-11T07:30:58.396Z,37.10
2023-06-11T07:33:25.917Z,36.90
2023-06-11T07:35:54.812Z,37.20
2023-06-11T07:38:23.188Z,37.00
2023-06-11T07:40:50.482Z,37.10
2023-06-11T07:43:17.648Z,37.50
2023-06-11T07:45:45.058Z,37.80
2023-06-11T07:48:12.388Z,36.30
2023-06-11T07:50:39.385Z,36.60
2023-06-11T07:53:06.314Z,35.60
2023-06-11T07:55:34.282Z,35.60
2023-06-11T07:58:01.178Z,34.50
2023-06-11T08:00:27.947Z,33.40
2023-06-11T08:02:54.955Z,34.60
2023-06-11T08:05:23.321Z,33.70
2023-06-11T08:07:50.473Z,31.60
2023-06-11T08:10:17.372Z,30.50
2023-06-11T08:12:44.438Z,30.30
2023-06-11T08:15:11.502Z,30.50
2023-06-11T08:17:39.892Z,30.10
2023-06-11T08:20:09.004Z,30.20
2023-06-11T08:22:36.373Z,31.00
2023-06-11T08:25:03.685Z,29.80
2023-06-11T08:27:30.619Z,28.70
2023-06-11T08:29:57.401Z,29.30
2023-06-11T08:32:25.117Z,29.00
2023-06-11T08:34:52.015Z,29.30
2023-06-11T08:37:18.951Z,27.40
2023-06-11T08:39:45.766Z,24.90
2023-06-11T08:42:13.874Z,24.10
2023-06-11T08:44:40.889Z,23.30
2023-06-11T08:47:08.259Z,24.50
2023-06-11T08:49:38.660Z,22.90
2023-06-11T08:52:06.340Z,22.10
2023-06-11T08:54:33.541Z,23.00
2023-06-11T08:57:00.707Z,22.40
2023-06-11T08:59:27.518Z,22.00
2023-06-11T09:01:54.515Z,22.80
2023-06-11T09:04:24.473Z,22.40
2023-06-11T09:06:59.345Z,23.50
2023-06-11T09:09:26.493Z,21.70
2023-06-11T09:11:53.499Z,23.30
2023-06-11T09:14:21.583Z,22.50
2023-06-11T09:16:49.687Z,23.20
2023-06-11T09:19:18.080Z,22.80
2023-06-11T09:21:52.326Z,23.20
2023-06-11T09:24:21.365Z,23.50
2023-06-11T09:26:56.669Z,23.90
2023-06-11T09:29:27.680Z,22.90
2023-06-11T09:32:23.939Z,24.00
2023-06-11T09:34:57.358Z,23.70
2023-06-11T09:37:24.520Z,22.60
2023-06-11T09:39:51.684Z,23.80
2023-06-11T09:42:28.384Z,23.70
2023-06-11T09:45:02.417Z,23.00
2023-06-11T09:47:32.951Z,23.50
2023-06-11T09:50:00.253Z,23.90
2023-06-11T09:52:28.120Z,24.00
2023-06-11T09:54:56.132Z,24.00
2023-06-11T09:57:23.181Z,24.10
2023-06-11T09:59:50.196Z,23.20
2023-06-11T10:02:17.049Z,23.60
2023-06-11T10:04:44.081Z,23.10
2023-06-11T10:07:12.198Z,22.20
2023-06-11T10:09:41.393Z,22.10
2023-06-11T10:12:08.910Z,21.80
2023-06-11T10:14:38.054Z,23.00
2023-06-11T10:17:09.448Z,22.60
2023-06-11T10:19:40.220Z,22.30
2023-06-11T10:22:07.471Z,22.40
2023-06-11T10:24:34.594Z,23.50
2023-06-11T10:27:13.805Z,24.50
2023-06-11T10:29:42.676Z,22.70
2023-06-11T10:32:20.913Z,24.30
2023-06-11T10:35:02.010Z,23.80
2023-06-11T10:37:33.463Z,23.00
2023-06-11T10:40:00.854Z,22.90
2023-06-11T10:42:34.979Z,24.40
2023-06-11T10:45:06.096Z,23.40
2023-06-11T10:47:42.714Z,23.80
2023-06-11T10:50:12.445Z,23.10
2023-06-11T10:53:07.990Z,23.20
2023-06-11T10:55:36.093Z,24.10
2023-06-11T10:58:03.442Z,23.80
2023-06-11T11:00:34.242Z,23.70
2023-06-11T11:03:04.878Z,24.40
2023-06-11T11:05:32.258Z,25.00
2023-06-11T11:08:02.292Z,24.70
2023-06-11T11:10:29.997Z,25.20
2023-06-11T11:12:56.892Z,25.10
2023-06-11T11:15:23.774Z,25.10
2023-06-11T11:17:51.441Z,25.40
2023-06-11T11:20:20.480Z,25.90
2023-06-11T11:22:55.674Z,25.60
2023-06-11T11:25:31.137Z,26.40
2023-06-11T11:27:58.813Z,25.70
2023-06-11T11:30:29.523Z,26.50
2023-06-11T11:32:58.014Z,25.10
2023-06-11T11:35:26.466Z,25.20
2023-06-11T11:37:55.765Z,26.50
2023-06-11T11:40:23.562Z,26.30
2023-06-11T11:42:58.079Z,26.30
2023-06-11T11:45:32.322Z,26.20
2023-06-11T11:48:04.096Z,26.10
2023-06-11T11:50:32.093Z,26.10
2023-06-11T11:53:06.835Z,27.00
2023-06-11T11:55:35.318Z,26.10
2023-06-11T11:58:07.104Z,26.40
2023-06-11T12:00:36.683Z,26.80
2023-06-11T12:03:11.050Z,27.50
2023-06-11T12:05:39.390Z,28.80
2023-06-11T12:08:07.576Z,30.10
2023-06-11T12:10:34.674Z,29.80
2023-06-11T12:13:02.403Z,29.20
2023-06-11T12:15:29.570Z,30.00
2023-06-11T12:17:56.480Z,29.40
2023-06-11T12:20:23.518Z,29.90
2023-06-11T12:22:51.571Z,29.30
2023-06-11T12:25:18.891Z,29.80
2023-06-11T12:27:45.882Z,29.90
2023-06-11T12:30:13.626Z,29.60
2023-06-11T12:32:41.976Z,30.10
2023-06-11T12:35:09.540Z,30.80
2023-06-11T12:37:37.528Z,30.80
2023-06-11T12:40:06.065Z,31.50
2023-06-11T12:42:34.282Z,32.30
2023-06-11T12:45:01.856Z,33.60
2023-06-11T12:47:28.806Z,34.30
2023-06-11T12:49:55.801Z,34.60
2023-06-11T12:52:22.668Z,35.30
2023-06-11T12:54:49.745Z,35.80
2023-06-11T12:57:16.785Z,36.90
2023-06-11T12:59:43.896Z,37.00
2023-06-11T13:02:11.746Z,37.30
2023-06-11T13:04:38.565Z,37.50
2023-06-11T13:07:05.709Z,38.20
2023-06-11T13:09:32.558Z,37.70
2023-06-11T13:11:59.749Z,38.50
2023-06-11T13:14:26.714Z,39.50
2023-06-11T13:16:55.731Z,40.10
2023-06-11T13:19:23.249Z,39.70
2023-06-11T13:21:50.116Z,39.90
2023-06-11T13:24:17.048Z,39.90
2023-06-11T13:26:44.152Z,40.50
2023-06-11T13:29:11.290Z,40.90
2023-06-11T13:31:40.586Z,40.50
2023-06-11T13:34:09.418Z,41.20
2023-06-11T13:36:37.583Z,41.10
2023-06-11T13:39:05.006Z,40.50
2023-06-11T13:41:31.733Z,40.20
2023-06-11T13:43:58.614Z,39.90
2023-06-11T13:46:25.671Z,40.20
2023-06-11T13:48:52.481Z,40.30
2023-06-11T13:51:20.801Z,40.40
2023-06-11T13:53:47.618Z,41.00
2023-06-11T13:56:15.214Z,41.00
2023-06-11T13:58:42.267Z,41.40
2023-06-11T14:01:09.119Z,41.50
2023-06-11T14:03:35.992Z,42.10
2023-06-11T14:06:03.972Z,42.70
2023-06-11T14:08:31.002Z,42.20
2023-06-11T14:10:57.998Z,42.90
2023-06-11T14:13:24.846Z,43.60
2023-06-11T14:15:52.202Z,40.90
2023-06-11T14:18:19.062Z,39.80
2023-06-11T14:20:46.005Z,40.00
2023-06-11T14:23:12.908Z,39.90
2023-06-11T14:25:39.727Z,39.80
2023-06-11T14:28:06.659Z,40.20
2023-06-11T14:30:33.622Z,40.70
2023-06-11T14:33:01.099Z,41.30
2023-06-11T14:35:27.978Z,41.80
2023-06-11T14:37:58.330Z,42.00
2023-06-11T14:40:26.807Z,41.70
2023-06-11T14:42:53.659Z,42.10
2023-06-11T14:45:22.391Z,42.30
2023-06-11T14:47:50.925Z,41.70
2023-06-11T14:50:17.777Z,43.10
2023-06-11T14:52:44.779Z,42.30
2023-06-11T14:55:11.529Z,42.60
2023-06-11T14:57:38.317Z,42.30
2023-06-11T15:00:05.876Z,41.80
2023-06-11T15:02:35.990Z,42.40
2023-06-11T15:05:04.168Z,42.30
2023-06-11T15:07:35.388Z,42.70
2023-06-11T15:10:05.336Z,42.70
2023-06-11T15:12:32.754Z,42.70
2023-06-11T15:15:02.038Z,42.60
2023-06-11T15:17:34.152Z,43.00
2023-06-11T15:20:01.211Z,43.70
2023-06-11T15:22:28.203Z,44.30
2023-06-11T15:24:55.065Z,43.50
2023-06-11T15:27:21.849Z,43.50
2023-06-11T15:29:48.882Z,42.20
2023-06-11T15:32:18.550Z,42.80
2023-06-11T15:34:45.666Z,43.10
2023-06-11T15:37:12.658Z,43.00
2023-06-11T15:39:39.439Z,41.80
2023-06-11T15:42:06.640Z,40.40
2023-06-11T15:44:33.540Z,40.70
2023-06-11T15:47:00.498Z,41.20
2023-06-11T15:49:27.313Z,41.50
2023-06-11T15:51:54.127Z,42.30
2023-06-11T15:54:20.973Z,42.30
2023-06-11T15:56:48.872Z,42.70
2023-06-11T15:59:16.185Z,42.10
2023-06-11T16:01:43.809Z,42.70
2023-06-11T16:04:14.398Z,43.20
2023-06-11T16:06:41.267Z,43.40
2023-06-11T16:09:09.162Z,43.30
2023-06-11T16:11:36.068Z,42.70
2023-06-11T16:14:02.859Z,42.50
2023-06-11T16:16:29.884Z,42.80
2023-06-11T16:18:56.955Z,41.30
2023-06-11T16:21:23.861Z,40.10
2023-06-11T16:23:50.990Z,40.10
2023-06-11T16:26:17.822Z,40.20
2023-06-11T16:28:44.637Z,40.20
2023-06-11T16:31:11.543Z,40.40
2023-06-11T16:33:51.882Z,40.40
2023-06-11T16:36:22.772Z,40.00
2023-06-11T16:38:49.741Z,40.40
2023-06-11T16:41:16.629Z,40.40
2023-06-11T16:43:43.668Z,40.70
2023-06-11T16:46:10.565Z,40.70
2023-06-11T16:48:37.517Z,40.30
2023-06-11T16:51:04.366Z,41.10
2023-06-11T16:53:31.208Z,40.90
2023-06-11T16:55:58.154Z,40.50
2023-06-11T16:58:25.229Z,40.80
2023-06-11T17:00:52.557Z,41.10
2023-06-11T17:03:19.781Z,41.20
2023-06-11T17:05:46.788Z,41.60
2023-06-11T17:08:14.338Z,41.90
2023-06-11T17:10:41.429Z,41.80
2023-06-11T17:13:08.306Z,41.00
2023-06-11T17:15:35.303Z,41.20
2023-06-11T17:18:02.227Z,41.00
2023-06-11T17:20:29.124Z,41.10
2023-06-11T17:22:55.986Z,41.30
2023-06-11T17:25:24.527Z,41.10
2023-06-11T17:27:51.792Z,41.30
2023-06-11T17:30:18.876Z,41.60
2023-06-11T17:32:45.768Z,40.80
2023-06-11T17:35:13.023Z,41.10
2023-06-11T17:37:40.046Z,41.10
2023-06-11T17:40:08.327Z,41.00
2023-06-11T17:42:35.248Z,41.10
2023-06-11T17:45:02.066Z,41.70
2023-06-11T17:47:28.883Z,41.80
2023-06-11T17:49:55.912Z,41.60
2023-06-11T17:52:22.689Z,42.00
2023-06-11T17:54:50.278Z,41.90
2023-06-11T17:57:17.163Z,41.80
2023-06-11T17:59:43.930Z,42.10
2023-06-11T18:02:10.828Z,42.30
2023-06-11T18:04:37.592Z,42.20
2023-06-11T18:07:05.247Z,42.20
2023-06-11T18:09:32.064Z,42.30
2023-06-11T18:11:58.878Z,42.60
2023-06-11T18:14:25.675Z,42.70
2023-06-11T18:16:54.460Z,42.90
2023-06-11T18:19:21.476Z,43.00
2023-06-11T18:21:48.362Z,43.20
2023-06-11T18:24:15.457Z,43.40
2023-06-11T18:26:42.396Z,43.40
2023-06-11T18:29:09.736Z,43.60
2023-06-11T18:31:36.544Z,43.70
2023-06-11T18:34:03.592Z,43.70
2023-06-11T18:36:30.551Z,44.20
2023-06-11T18:38:57.671Z,44.50
2023-06-11T18:41:24.541Z,47.00
2023-06-11T18:43:51.592Z,47.70
2023-06-11T18:46:18.653Z,48.40
2023-06-11T18:48:45.715Z,49.30
2023-06-11T18:51:13.968Z,48.90
2023-06-11T18:53:40.804Z,49.90
2023-06-11T18:56:07.578Z,50.50
2023-06-11T18:58:34.509Z,50.90
2023-06-11T19:01:01.519Z,51.50
2023-06-11T19:03:28.461Z,51.90
2023-06-11T19:05:55.468Z,52.40
2023-06-11T19:08:22.269Z,53.10
2023-06-11T19:10:49.731Z,53.70
2023-06-11T19:13:19.980Z,54.10
2023-06-11T19:15:47.263Z,54.90
2023-06-11T19:18:15.140Z,55.30
2023-06-11T19:20:42.215Z,56.00
2023-06-11T19:23:11.028Z,56.40
2023-06-11T19:25:37.930Z,56.50
2023-06-11T19:28:04.984Z,57.40
2023-06-11T19:30:32.080Z,57.80
2023-06-11T19:32:59.024Z,58.10
2023-06-11T19:35:25.934Z,58.70
2023-06-11T19:37:52.814Z,58.80
2023-06-11T19:40:19.739Z,59.20
2023-06-11T19:42:46.571Z,59.50
2023-06-11T19:45:17.203Z,59.90
2023-06-11T19:47:44.009Z,60.20
2023-06-11T19:50:11.939Z,60.20
2023-06-11T19:52:39.100Z,60.90
2023-06-11T19:55:06.352Z,61.20
2023-06-11T19:57:33.249Z,61.30
2023-06-11T20:00:00.641Z,61.40
2023-06-11T20:02:27.942Z,61.70
2023-06-11T20:04:55.038Z,61.90
2023-06-11T20:07:21.950Z,62.50
2023-06-11T20:09:48.890Z,62.10
2023-06-11T20:12:15.793Z,62.50
2023-06-11T20:14:42.548Z,62.80
2023-06-11T20:17:09.371Z,63.30
2023-06-11T20:19:37.060Z,63.20
2023-06-11T20:22:07.313Z,63.60
2023-06-11T20:24:34.302Z,63.60
2023-06-11T20:27:01.306Z,63.80
2023-06-11T20:29:28.056Z,64.10
2023-06-11T20:31:55.117Z,64.20
2023-06-11T20:34:21.974Z,64.30
2023-06-11T20:36:48.889Z,64.40
2023-06-11T20:39:15.695Z,64.70
2023-06-11T20:41:42.716Z,64.40
2023-06-11T20:44:09.764Z,64.60
2023-06-11T20:46:36.637Z,64.50
2023-06-11T20:49:03.703Z,64.80
2023-06-11T20:51:30.510Z,64.90
2023-06-11T20:53:57.386Z,65.10
2023-06-11T20:56:24.199Z,65.20
2023-06-11T20:58:51.202Z,65.70
2023-06-11T21:01:18.111Z,65.10
2023-06-11T21:03:45.195Z,65.30
2023-06-11T21:06:12.161Z,65.40
2023-06-11T21:08:38.992Z,65.30
2023-06-11T21:11:06.893Z,65.80
2023-06-11T21:13:33.882Z,66.60
2023-06-11T21:16:00.723Z,66.80
2023-06-11T21:18:27.646Z,66.70
2023-06-11T21:20:54.424Z,66.30
2023-06-11T21:23:22.243Z,66.60
2023-06-11T21:25:49.850Z,66.30
2023-06-11T21:28:16.701Z,67.00
2023-06-11T21:30:44.105Z,67.00
2023-06-11T21:33:11.120Z,67.70
2023-06-11T21:35:37.910Z,67.90
2023-06-11T21:38:04.656Z,68.00
2023-06-11T21:50:14.923Z,69.60
2023-06-11T21:52:42.315Z,70.40
2023-06-11T21:55:09.435Z,70.80
2023-06-11T21:57:36.319Z,71.00
2023-06-11T22:00:11.737Z,70.70
2023-06-11T22:02:42.933Z,71.20
2023-06-11T22:05:10.798Z,70.80
2023-06-11T22:07:38.315Z,71.50
2023-06-11T22:10:05.641Z,71.70
2023-06-11T22:12:42.928Z,71.20
2023-06-11T22:15:11.666Z,71.10
2023-06-11T22:17:40.319Z,71.40
2023-06-11T22:20:09.182Z,72.30
2023-06-11T22:22:38.361Z,71.90
2023-06-11T22:25:05.930Z,72.80
2023-06-11T22:27:33.459Z,73.30
2023-06-11T22:30:00.477Z,73.90
2023-06-11T22:32:27.718Z,74.10
2023-06-11T22:34:54.783Z,73.90
2023-06-11T22:37:21.762Z,74.20
2023-06-11T22:39:48.641Z,73.90
2023-06-11T22:42:15.674Z,74.80
2023-06-11T22:44:42.525Z,74.70
2023-06-11T22:47:11.068Z,74.70
2023-06-11T22:49:39.227Z,75.60
2023-06-11T22:52:09.022Z,75.90
2023-06-11T22:54:39.660Z,75.60
2023-06-11T22:57:09.629Z,76.30
2023-06-11T22:59:36.409Z,76.00
2023-06-11T23:02:03.551Z,76.30
2023-06-11T23:04:34.018Z,76.40
2023-06-11T23:07:03.107Z,76.50
2023-06-11T23:09:30.595Z,76.90
2023-06-11T23:11:57.545Z,77.10
2023-06-11T23:14:24.721Z,77.50
2023-06-11T23:16:51.658Z,77.90
2023-06-11T23:19:23.700Z,77.70
2023-06-11T23:21:51.768Z,78.60
2023-06-11T23:24:19.017Z,78.70
2023-06-11T23:26:46.691Z,78.70
2023-06-11T23:29:13.634Z,78.50
2023-06-11T23:31:40.759Z,79.20
2023-06-11T23:34:10.769Z,78.80
2023-06-11T23:36:41.239Z,78.80
2023-06-11T23:39:10.514Z,79.40
2023-06-11T23:41:37.615Z,79.80
2023-06-11T23:44:05.048Z,80.20
2023-06-11T23:46:33.917Z,79.60
2023-06-11T23:49:01.303Z,79.90
2023-06-11T23:51:29.252Z,79.40
2023-06-11T23:53:56.367Z,80.00
2023-06-11T23:56:23.325Z,79.70
2023-06-11T23:58:50.480Z,80.10
